createdAt,value
2022-10-22T00:00:47.669Z,462.3
2022-10-22T00:01:49.351Z,462.6
2022-10-22T00:02:51.391Z,462.3
2022-10-22T00:03:53.132Z,462.2
2022-10-22T00:04:55.193Z,462.4
2022-10-22T00:05:57.025Z,462.4
2022-10-22T00:06:58.866Z,462.4
2022-10-22T00:08:00.448Z,462.3
2022-10-22T00:09:02.514Z,461.9
2022-10-22T00:10:04.255Z,462.4
2022-10-22T00:11:05.899Z,462.2
2022-10-22T00:12:07.438Z,462.4
2022-10-22T00:13:09.081Z,462.5
2022-10-22T00:14:10.604Z,462.1
2022-10-22T00:15:12.287Z,462.1
2022-10-22T00:16:13.826Z,461.8
2022-10-22T00:17:15.460Z,461.9
2022-10-22T00:18:17.142Z,461.9
2022-10-22T00:19:18.733Z,462
2022-10-22T00:20:23.383Z,462.2
2022-10-22T00:21:24.931Z,462.2
2022-10-22T00:22:26.472Z,462.1
2022-10-22T00:23:28.090Z,462.5
2022-10-22T00:24:29.814Z,462.4
2022-10-22T00:25:31.347Z,462.1
2022-10-22T00:26:32.872Z,462.2
2022-10-22T00:27:38.274Z,461.9
2022-10-22T00:28:40.205Z,462
2022-10-22T00:29:41.735Z,461.9
2022-10-22T00:30:43.471Z,462.3
2022-10-22T00:31:45.467Z,462.2
2022-10-22T00:32:47.442Z,462.5
2022-10-22T00:33:49.060Z,462.5
2022-10-22T00:34:50.686Z,462.9
2022-10-22T00:35:52.437Z,463.4
2022-10-22T00:36:54.035Z,463.6
2022-10-22T00:37:55.850Z,463.6
2022-10-22T00:38:57.517Z,463.6
2022-10-22T00:39:59.057Z,463.5
2022-10-22T00:42:03.287Z,464
2022-10-22T00:43:04.897Z,464.1
2022-10-22T00:44:06.570Z,464.2
2022-10-22T00:45:08.209Z,464.5
2022-10-22T00:46:09.748Z,464.3
2022-10-22T00:47:11.364Z,464.4
2022-10-22T00:48:13.102Z,464.5
2022-10-22T00:49:14.642Z,464.1
2022-10-22T00:50:16.383Z,464.5
2022-10-22T00:51:18.141Z,464.6
2022-10-22T00:52:19.738Z,464.4
2022-10-22T00:53:21.284Z,464.6
2022-10-22T00:54:23.155Z,464.6
2022-10-22T00:55:24.803Z,464.5
2022-10-22T00:56:26.555Z,464.6
2022-10-22T00:57:28.115Z,464.1
2022-10-22T00:58:29.649Z,463.7
2022-10-22T00:59:31.303Z,463.9
2022-10-22T01:00:33.469Z,463.9
2022-10-22T01:01:35.059Z,464
2022-10-22T01:02:40.253Z,464.1
2022-10-22T01:03:41.977Z,464.1
2022-10-22T01:04:43.579Z,464.2
2022-10-22T01:05:45.380Z,464.4
2022-10-22T01:06:47.829Z,464.6
2022-10-22T01:07:49.498Z,464.9
2022-10-22T01:08:51.539Z,465.4
2022-10-22T01:09:53.187Z,465.6
2022-10-22T01:10:55.213Z,465.9
2022-10-22T01:11:56.759Z,465.7
2022-10-22T01:12:58.396Z,465.9
2022-10-22T01:13:59.938Z,466.1
2022-10-22T01:15:01.500Z,466.2
2022-10-22T01:16:03.122Z,466.9
2022-10-22T01:17:04.657Z,467
2022-10-22T01:18:06.353Z,467
2022-10-22T01:19:07.900Z,467.2
2022-10-22T01:20:09.445Z,467
2022-10-22T01:21:11.250Z,467.2
2022-10-22T01:22:13.025Z,467.5
2022-10-22T01:23:14.804Z,468.3
2022-10-22T01:24:16.336Z,468.4
2022-10-22T01:25:17.869Z,468.3
2022-10-22T01:26:20.048Z,468.1
2022-10-22T01:27:21.917Z,467.7
2022-10-22T01:28:23.542Z,467.3
2022-10-22T01:29:25.162Z,467.4
2022-10-22T01:30:26.710Z,467.8
2022-10-22T01:31:28.263Z,467.5
2022-10-22T01:32:29.996Z,467.7
2022-10-22T01:33:31.810Z,468
2022-10-22T01:34:33.481Z,468.4
2022-10-22T01:35:35.306Z,468.3
2022-10-22T01:36:37.020Z,468.5
2022-10-22T01:37:40.830Z,468.5
2022-10-22T01:38:42.635Z,469
2022-10-22T01:39:44.169Z,469.3
2022-10-22T01:40:45.823Z,469.6
2022-10-22T01:41:47.879Z,469.4
2022-10-22T01:42:49.626Z,469.8
2022-10-22T01:43:51.353Z,469.7
2022-10-22T01:44:52.959Z,469.8
2022-10-22T01:45:54.494Z,470.4
2022-10-22T01:46:56.542Z,470.1
2022-10-22T01:47:58.345Z,470.2
2022-10-22T01:48:59.892Z,470.3
2022-10-22T01:50:01.577Z,470.8
2022-10-22T01:51:03.194Z,470.5
2022-10-22T01:52:04.768Z,470.7
2022-10-22T01:53:06.682Z,470.1
2022-10-22T01:54:08.792Z,469.3
2022-10-22T01:55:10.371Z,469.8
2022-10-22T01:56:12.007Z,469.6
2022-10-22T01:57:13.604Z,469.8
2022-10-22T01:58:15.235Z,469.7
2022-10-22T01:59:16.873Z,469.2
2022-10-22T02:00:18.496Z,469.2
2022-10-22T02:01:20.222Z,469.1
2022-10-22T02:02:21.699Z,469.1
2022-10-22T02:03:24.453Z,469.5
2022-10-22T02:04:26.118Z,469.4
2022-10-22T02:05:27.743Z,468.9
2022-10-22T02:06:29.375Z,468.9
2022-10-22T02:07:31.131Z,468.8
2022-10-22T02:08:33.219Z,468.8
2022-10-22T02:09:34.771Z,469
2022-10-22T02:10:36.346Z,468.7
2022-10-22T02:11:38.005Z,468.6
2022-10-22T02:12:40.902Z,468.4
2022-10-22T02:13:42.714Z,468.9
2022-10-22T02:14:44.320Z,468.2
2022-10-22T02:15:46.634Z,468.4
2022-10-22T02:16:48.176Z,467.9
2022-10-22T02:17:49.702Z,467.8
2022-10-22T02:18:51.237Z,467.6
2022-10-22T02:19:52.817Z,468.2
2022-10-22T02:20:54.989Z,468.2
2022-10-22T02:21:56.734Z,468.5
2022-10-22T02:22:58.483Z,468.6
2022-10-22T02:24:00.741Z,468.6
2022-10-22T02:25:05.554Z,468.5
2022-10-22T02:26:07.095Z,468.7
2022-10-22T02:27:08.841Z,468.9
2022-10-22T02:28:10.422Z,469.1
2022-10-22T02:29:12.142Z,468.9
2022-10-22T02:30:14.067Z,468.9
2022-10-22T02:31:15.828Z,468.8
2022-10-22T02:32:17.442Z,469.3
2022-10-22T02:33:18.985Z,469.6
2022-10-22T02:34:20.518Z,470.4
2022-10-22T02:35:22.227Z,470.2
2022-10-22T02:36:23.938Z,469.8
2022-10-22T02:37:25.555Z,469.6
2022-10-22T02:38:27.251Z,469.1
2022-10-22T02:39:28.904Z,468.8
2022-10-22T02:40:30.493Z,468.7
2022-10-22T02:41:32.027Z,468.5
2022-10-22T02:42:33.564Z,468.8
2022-10-22T02:43:35.288Z,468.4
2022-10-22T02:44:36.936Z,468.3
2022-10-22T02:45:38.471Z,468.3
2022-10-22T02:46:40.035Z,468.7
2022-10-22T02:47:41.569Z,468.3
2022-10-22T02:48:43.212Z,468.8
2022-10-22T02:49:44.853Z,467.8
2022-10-22T02:50:46.736Z,468
2022-10-22T02:51:48.349Z,467.8
2022-10-22T02:52:49.884Z,467.5
2022-10-22T02:53:51.618Z,467.4
2022-10-22T02:54:53.472Z,467.2
2022-10-22T02:55:55.348Z,466.8
2022-10-22T02:56:56.989Z,467.3
2022-10-22T02:57:58.601Z,466.9
2022-10-22T02:59:00.277Z,467.2
2022-10-22T03:00:01.852Z,467.4
2022-10-22T03:01:03.998Z,467.5
2022-10-22T03:02:05.734Z,467.5
2022-10-22T03:03:07.278Z,467.1
2022-10-22T03:04:08.984Z,467.3
2022-10-22T03:05:10.634Z,467.5
2022-10-22T03:06:12.744Z,467.3
2022-10-22T03:07:14.431Z,467.5
2022-10-22T03:08:15.966Z,467.3
2022-10-22T03:09:25.303Z,467
2022-10-22T03:10:30.098Z,467.1
2022-10-22T03:11:31.751Z,467.4
2022-10-22T03:12:33.298Z,467.5
2022-10-22T03:13:34.848Z,467.8
2022-10-22T03:14:36.492Z,467.2
2022-10-22T03:15:38.102Z,467.1
2022-10-22T03:16:39.631Z,467.5
2022-10-22T03:17:43.053Z,467.3
2022-10-22T03:18:44.683Z,467.4
2022-10-22T03:19:46.699Z,467.5
2022-10-22T03:20:48.253Z,467.8
2022-10-22T03:21:49.795Z,467.7
2022-10-22T03:22:51.423Z,467.8
2022-10-22T03:23:53.123Z,468
2022-10-22T03:24:55.394Z,467.4
2022-10-22T03:25:57.369Z,467.7
2022-10-22T03:26:59.223Z,467.9
2022-10-22T03:28:00.824Z,468
2022-10-22T03:29:02.506Z,468.3
2022-10-22T03:30:04.139Z,468.7
2022-10-22T03:31:05.815Z,468.4
2022-10-22T03:32:07.541Z,469.1
2022-10-22T03:33:09.205Z,469
2022-10-22T03:34:10.736Z,469.2
2022-10-22T03:35:12.445Z,469
2022-10-22T03:36:14.001Z,468.8
2022-10-22T03:37:15.585Z,468.9
2022-10-22T03:38:17.410Z,468.5
2022-10-22T03:39:18.961Z,468.6
2022-10-22T03:40:20.647Z,468.9
2022-10-22T03:41:22.354Z,468.6
2022-10-22T03:42:24.081Z,468.4
2022-10-22T03:43:25.689Z,468.4
2022-10-22T03:44:27.227Z,468.6
2022-10-22T03:45:29.255Z,469.1
2022-10-22T03:46:30.866Z,469.3
2022-10-22T03:47:32.405Z,469
2022-10-22T03:48:34.082Z,469.1
2022-10-22T03:49:35.621Z,469.6
2022-10-22T03:50:37.366Z,469.5
2022-10-22T03:51:38.887Z,469.9
2022-10-22T03:52:40.487Z,470
2022-10-22T03:53:42.097Z,469.7
2022-10-22T03:54:43.719Z,469.7
2022-10-22T03:55:45.483Z,469.5
2022-10-22T03:56:47.205Z,469.4
2022-10-22T03:57:48.788Z,469.2
2022-10-22T03:58:50.306Z,468.9
2022-10-22T03:59:51.963Z,468.6
2022-10-22T04:00:53.945Z,468.2
2022-10-22T04:01:55.630Z,468.2
2022-10-22T04:02:57.166Z,468.1
2022-10-22T04:03:58.749Z,468.5
2022-10-22T04:05:01.048Z,468.7
2022-10-22T04:06:02.774Z,468.7
2022-10-22T04:07:04.327Z,468.6
2022-10-22T04:08:05.864Z,468.4
2022-10-22T04:09:07.918Z,468.4
2022-10-22T04:10:09.585Z,468.3
2022-10-22T04:11:11.268Z,468.5
2022-10-22T04:12:12.951Z,468.9
2022-10-22T04:13:14.573Z,468.8
2022-10-22T04:14:16.207Z,469.2
2022-10-22T04:15:17.818Z,469.3
2022-10-22T04:16:19.369Z,469.4
2022-10-22T04:17:21.173Z,469.1
2022-10-22T04:18:22.718Z,469.3
2022-10-22T04:19:24.260Z,469.3
2022-10-22T04:20:25.901Z,469.3
2022-10-22T04:21:27.520Z,469.4
2022-10-22T04:22:29.167Z,469
2022-10-22T04:23:30.907Z,469.1
2022-10-22T04:24:32.498Z,469.1
2022-10-22T04:25:34.126Z,469.6
2022-10-22T04:26:35.863Z,469.9
2022-10-22T04:27:38.525Z,470
2022-10-22T04:28:40.330Z,470.3
2022-10-22T04:29:41.910Z,470.4
2022-10-22T04:30:43.447Z,469.9
2022-10-22T04:31:44.989Z,470
2022-10-22T04:32:46.567Z,470.4
2022-10-22T04:33:48.108Z,470.4
2022-10-22T04:34:49.752Z,470.8
2022-10-22T04:35:51.366Z,470.4
2022-10-22T04:36:52.926Z,470.4
2022-10-22T04:37:54.591Z,470.3
2022-10-22T04:38:56.226Z,470.2
2022-10-22T04:39:58.803Z,470.6
2022-10-22T04:41:00.447Z,470.3
2022-10-22T04:42:02.177Z,470.1
2022-10-22T04:43:03.931Z,469.9
2022-10-22T04:44:06.269Z,469.9
2022-10-22T04:45:08.001Z,469.5
2022-10-22T04:46:09.763Z,469.3
2022-10-22T04:47:14.270Z,469.4
2022-10-22T04:48:15.861Z,469.8
2022-10-22T04:49:17.441Z,469.8
2022-10-22T04:50:18.971Z,470
2022-10-22T04:51:20.590Z,470.1
2022-10-22T04:52:22.410Z,469.8
2022-10-22T04:53:24.080Z,470
2022-10-22T04:54:33.599Z,470.1
2022-10-22T04:55:35.276Z,470.3
2022-10-22T04:56:36.965Z,470
2022-10-22T04:57:40.412Z,470
2022-10-22T04:58:42.534Z,470
2022-10-22T04:59:44.299Z,470
2022-10-22T05:00:46.346Z,469.6
2022-10-22T05:01:47.938Z,469.7
2022-10-22T05:02:49.499Z,469
2022-10-22T05:03:51.043Z,469.1
2022-10-22T05:04:52.774Z,468.9
2022-10-22T05:05:57.422Z,468.7
2022-10-22T05:06:58.985Z,468.9
2022-10-22T05:08:00.630Z,468.8
2022-10-22T05:09:02.734Z,468.6
2022-10-22T05:10:05.318Z,468.7
2022-10-22T05:11:06.850Z,469.1
2022-10-22T05:12:08.384Z,469.3
2022-10-22T05:13:09.970Z,469.1
2022-10-22T05:14:11.720Z,469
2022-10-22T05:15:13.367Z,468.5
2022-10-22T05:16:14.905Z,468.3
2022-10-22T05:17:25.015Z,468.1
2022-10-22T05:18:26.618Z,467.3
2022-10-22T05:19:28.176Z,467
2022-10-22T05:20:29.719Z,467.1
2022-10-22T05:21:31.335Z,466.8
2022-10-22T05:22:32.992Z,466.6
2022-10-22T05:23:34.569Z,467.2
2022-10-22T05:24:36.245Z,466.8
2022-10-22T05:25:38.188Z,467.1
2022-10-22T05:26:39.807Z,467
2022-10-22T05:27:43.126Z,466.7
2022-10-22T05:28:44.980Z,467
2022-10-22T05:29:46.736Z,466.2
2022-10-22T05:30:48.302Z,466.3
2022-10-22T05:31:49.840Z,466.4
2022-10-22T05:32:51.481Z,466.7
2022-10-22T05:33:53.006Z,466.9
2022-10-22T05:34:54.634Z,466.9
2022-10-22T05:35:56.300Z,467.1
2022-10-22T05:36:57.943Z,467.1
2022-10-22T05:37:59.774Z,466.7
2022-10-22T05:39:01.333Z,466.4
2022-10-22T05:40:31.653Z,466.3
2022-10-22T05:41:33.310Z,466.3
2022-10-22T05:42:34.956Z,466.3
2022-10-22T05:43:36.579Z,466
2022-10-22T05:44:38.316Z,466
2022-10-22T05:45:39.987Z,465.9
2022-10-22T05:46:41.590Z,466.1
2022-10-22T05:47:43.250Z,466.2
2022-10-22T05:48:45.009Z,465.8
2022-10-22T05:49:46.866Z,466.3
2022-10-22T05:50:48.410Z,465.8
2022-10-22T05:51:50.141Z,466
2022-10-22T05:52:51.682Z,466.3
2022-10-22T05:53:53.290Z,466.6
2022-10-22T05:54:54.893Z,466.7
2022-10-22T05:55:56.430Z,466.8
2022-10-22T05:56:58.074Z,467.1
2022-10-22T05:57:59.733Z,466.9
2022-10-22T05:59:04.432Z,466.8
2022-10-22T06:00:06.287Z,466.9
2022-10-22T06:01:08.041Z,466.8
2022-10-22T06:02:10.101Z,466.6
2022-10-22T06:03:11.803Z,466.8
2022-10-22T06:04:13.390Z,466.7
2022-10-22T06:05:15.129Z,466.8
2022-10-22T06:06:16.674Z,466.6
2022-10-22T06:07:18.209Z,466.9
2022-10-22T06:08:19.832Z,466.9
2022-10-22T06:09:21.417Z,466.6
2022-10-22T06:10:23.206Z,466.7
2022-10-22T06:11:24.738Z,466.4
2022-10-22T06:12:26.352Z,466.3
2022-10-22T06:13:27.899Z,466
2022-10-22T06:14:29.508Z,466.1
2022-10-22T06:15:31.166Z,466
2022-10-22T06:16:32.897Z,465.9
2022-10-22T06:17:34.582Z,466.3
2022-10-22T06:18:36.124Z,466.5
2022-10-22T06:19:37.773Z,466.2
2022-10-22T06:20:39.320Z,466.4
2022-10-22T06:21:40.966Z,466.2
2022-10-22T06:22:44.102Z,465.9
2022-10-22T06:23:45.891Z,466.2
2022-10-22T06:24:47.533Z,465.8
2022-10-22T06:25:49.177Z,465.6
2022-10-22T06:26:50.786Z,465.6
2022-10-22T06:27:52.364Z,465.6
2022-10-22T06:28:53.984Z,465.4
2022-10-22T06:29:55.761Z,465.2
2022-10-22T06:30:57.386Z,465.5
2022-10-22T06:31:59.137Z,465.3
2022-10-22T06:33:00.736Z,465.2
2022-10-22T06:34:02.412Z,465.7
2022-10-22T06:35:03.983Z,465.8
2022-10-22T06:36:08.465Z,465.7
2022-10-22T06:37:10.126Z,466.1
2022-10-22T06:38:11.789Z,465.6
2022-10-22T06:39:13.335Z,465.4
2022-10-22T06:40:14.972Z,465.2
2022-10-22T06:41:16.712Z,464.8
2022-10-22T06:42:18.242Z,464.5
2022-10-22T06:43:19.769Z,464.6
2022-10-22T06:44:21.452Z,464.9
2022-10-22T06:45:23.135Z,464.7
2022-10-22T06:46:24.826Z,465
2022-10-22T06:47:26.547Z,465.4
2022-10-22T06:48:28.201Z,465.2
2022-10-22T06:49:29.951Z,465.5
2022-10-22T06:50:31.601Z,464.9
2022-10-22T06:51:33.281Z,465.2
2022-10-22T06:52:37.538Z,465.1
2022-10-22T06:53:39.127Z,465.2
2022-10-22T06:54:40.735Z,465.2
2022-10-22T06:55:42.364Z,465.3
2022-10-22T06:56:43.965Z,465.3
2022-10-22T06:57:45.591Z,465.5
2022-10-22T06:58:47.249Z,465.7
2022-10-22T06:59:48.920Z,465.6
2022-10-22T07:00:50.523Z,465.6
2022-10-22T07:01:52.573Z,465.4
2022-10-22T07:03:00.309Z,465.3
2022-10-22T07:04:01.902Z,465
2022-10-22T07:05:03.446Z,464.8
2022-10-22T07:06:05.115Z,465
2022-10-22T07:07:06.759Z,464.3
2022-10-22T07:08:08.408Z,464.5
2022-10-22T07:09:10.742Z,464.6
2022-10-22T07:10:12.444Z,465
2022-10-22T07:11:14.228Z,465.6
2022-10-22T07:12:15.850Z,465.3
2022-10-22T07:13:17.392Z,465.6
2022-10-22T07:14:19.081Z,465.5
2022-10-22T07:15:20.821Z,465.6
2022-10-22T07:16:22.490Z,466
2022-10-22T07:17:24.211Z,465.9
2022-10-22T07:18:26.078Z,466.3
2022-10-22T07:19:27.673Z,466.3
2022-10-22T07:20:29.237Z,466.3
2022-10-22T07:21:31.084Z,466.6
2022-10-22T07:22:32.768Z,466.2
2022-10-22T07:23:34.508Z,466.1
2022-10-22T07:24:36.032Z,466.3
2022-10-22T07:25:37.971Z,466.1
2022-10-22T07:26:39.619Z,466.2
2022-10-22T07:27:43.651Z,466.1
2022-10-22T07:28:45.406Z,466.1
2022-10-22T07:29:47.826Z,465.9
2022-10-22T07:30:49.353Z,465.9
2022-10-22T07:31:50.897Z,465.8
2022-10-22T07:32:52.687Z,466.1
2022-10-22T07:33:54.435Z,465.8
2022-10-22T07:34:56.058Z,465.6
2022-10-22T07:35:57.700Z,466.1
2022-10-22T07:36:59.355Z,466.3
2022-10-22T07:38:01.032Z,466.1
2022-10-22T07:39:02.671Z,466.6
2022-10-22T07:40:04.902Z,466.8
2022-10-22T07:41:06.771Z,467.1
2022-10-22T07:42:08.802Z,467
2022-10-22T07:43:10.356Z,467.1
2022-10-22T07:44:14.838Z,466.9
2022-10-22T07:45:16.385Z,466.8
2022-10-22T07:46:20.944Z,466.5
2022-10-22T07:47:22.584Z,466.9
2022-10-22T07:48:24.327Z,466.9
2022-10-22T07:49:26.078Z,467.4
2022-10-22T07:50:27.696Z,467.6
2022-10-22T07:51:29.342Z,467.7
2022-10-22T07:52:31.027Z,468.1
2022-10-22T07:53:32.762Z,468.6
2022-10-22T07:54:34.450Z,468.6
2022-10-22T07:55:36.057Z,468.7
2022-10-22T07:56:37.670Z,469.2
2022-10-22T07:57:39.351Z,469.2
2022-10-22T07:58:41.191Z,469.2
2022-10-22T07:59:42.795Z,469.6
2022-10-22T08:00:44.428Z,469.7
2022-10-22T08:01:46.555Z,469.2
2022-10-22T08:02:48.386Z,468.9
2022-10-22T08:03:50.126Z,468.9
2022-10-22T08:04:51.883Z,468.5
2022-10-22T08:05:53.713Z,468.6
2022-10-22T08:06:55.496Z,468.5
2022-10-22T08:07:57.136Z,468.4
2022-10-22T08:08:58.964Z,468.3
2022-10-22T08:10:00.813Z,468.3
2022-10-22T08:11:02.477Z,468.7
2022-10-22T08:12:04.108Z,468.7
2022-10-22T08:13:05.771Z,468.5
2022-10-22T08:14:07.502Z,468.5
2022-10-22T08:15:09.646Z,468.7
2022-10-22T08:16:11.418Z,468.7
2022-10-22T08:17:13.151Z,469.1
2022-10-22T08:18:14.713Z,469.4
2022-10-22T08:19:16.444Z,469.6
2022-10-22T08:20:18.094Z,469.8
2022-10-22T08:21:19.749Z,469.7
2022-10-22T08:22:21.280Z,469.5
2022-10-22T08:23:29.168Z,469.3
2022-10-22T08:24:30.792Z,469.2
2022-10-22T08:25:32.446Z,469.3
2022-10-22T08:26:33.995Z,469.5
2022-10-22T08:27:35.746Z,469.6
2022-10-22T08:28:38.085Z,469.9
2022-10-22T08:29:39.665Z,469.9
2022-10-22T08:30:41.398Z,470.1
2022-10-22T08:31:43.048Z,470.3
2022-10-22T08:32:44.771Z,470.5
2022-10-22T08:33:46.308Z,470.7
2022-10-22T08:34:48.066Z,470.5
2022-10-22T08:35:50.040Z,470.7
2022-10-22T08:36:51.633Z,470.5
2022-10-22T08:37:53.320Z,470.6
2022-10-22T08:38:54.859Z,470.4
2022-10-22T08:39:56.702Z,470.8
2022-10-22T08:40:58.239Z,470.7
2022-10-22T08:41:59.789Z,470.5
2022-10-22T08:43:01.480Z,470.5
2022-10-22T08:44:03.111Z,470.3
2022-10-22T08:45:04.754Z,470.1
2022-10-22T08:46:06.295Z,470.3
2022-10-22T08:47:07.913Z,470.2
2022-10-22T08:48:09.460Z,469.9
2022-10-22T08:49:11.206Z,470.2
2022-10-22T08:50:12.864Z,470.3
2022-10-22T08:51:14.616Z,470.9
2022-10-22T08:52:16.378Z,470.9
2022-10-22T08:53:18.021Z,470.9
2022-10-22T08:54:19.557Z,470.5
2022-10-22T08:55:21.276Z,470.6
2022-10-22T08:56:22.826Z,470.3
2022-10-22T08:57:24.782Z,470.4
2022-10-22T08:58:26.399Z,470.6
2022-10-22T08:59:28.036Z,470.8
2022-10-22T09:00:29.634Z,471.1
2022-10-22T09:01:31.374Z,471.6
2022-10-22T09:02:33.126Z,471.5
2022-10-22T09:03:34.775Z,471.3
2022-10-22T09:04:39.288Z,470.6
2022-10-22T09:05:41.443Z,470.6
2022-10-22T09:06:43.289Z,470.5
2022-10-22T09:07:44.945Z,470.3
2022-10-22T09:08:46.950Z,470.4
2022-10-22T09:09:48.670Z,471.1
2022-10-22T09:10:50.206Z,471.4
2022-10-22T09:11:51.832Z,471.1
2022-10-22T09:12:53.490Z,471.1
2022-10-22T09:13:55.218Z,471.4
2022-10-22T09:14:56.925Z,471.5
2022-10-22T09:15:58.485Z,471.7
2022-10-22T09:17:00.134Z,471.6
2022-10-22T09:18:01.801Z,471.9
2022-10-22T09:19:03.514Z,471.9
2022-10-22T09:20:05.980Z,472.2
2022-10-22T09:21:07.739Z,472
2022-10-22T09:22:09.501Z,472.2
2022-10-22T09:23:11.244Z,472.1
2022-10-22T09:24:12.887Z,471.6
2022-10-22T09:25:14.514Z,472
2022-10-22T09:26:16.062Z,471.9
2022-10-22T09:27:17.606Z,472.2
2022-10-22T09:28:19.167Z,472.2
2022-10-22T09:29:21.298Z,472.2
2022-10-22T09:30:22.922Z,472.7
2022-10-22T09:31:24.524Z,472.8
2022-10-22T09:32:26.336Z,472.7
2022-10-22T09:33:28.290Z,473
2022-10-22T09:34:29.972Z,473.1
2022-10-22T09:35:31.615Z,472.9
2022-10-22T09:36:33.436Z,473.2
2022-10-22T09:37:35.207Z,473.1
2022-10-22T09:38:36.788Z,473.4
2022-10-22T09:39:38.418Z,473.1
2022-10-22T09:40:39.958Z,473.7
2022-10-22T09:41:41.570Z,473.6
2022-10-22T09:42:44.631Z,474.4
2022-10-22T09:43:48.969Z,474.1
2022-10-22T09:44:50.636Z,474.1
2022-10-22T09:45:52.328Z,474.4
2022-10-22T09:46:53.873Z,474.7
2022-10-22T09:48:03.213Z,474.5
2022-10-22T09:49:04.887Z,475.3
2022-10-22T09:50:06.597Z,475.7
2022-10-22T09:51:08.144Z,475.8
2022-10-22T09:52:09.991Z,476.1
2022-10-22T09:53:11.764Z,476.1
2022-10-22T09:54:13.342Z,476.3
2022-10-22T09:55:15.023Z,476.6
2022-10-22T09:56:16.604Z,476.5
2022-10-22T09:57:18.249Z,476.5
2022-10-22T09:58:19.961Z,476.5
2022-10-22T09:59:21.503Z,476.6
2022-10-22T10:00:23.187Z,476.8
2022-10-22T10:01:24.901Z,476.7
2022-10-22T10:02:39.540Z,476.7
2022-10-22T10:03:41.124Z,476.4
2022-10-22T10:04:42.720Z,476.1
2022-10-22T10:05:44.481Z,475.7
2022-10-22T10:06:46.034Z,475.9
2022-10-22T10:07:48.301Z,475.6
2022-10-22T10:08:50.753Z,476.3
2022-10-22T10:09:52.374Z,476.7
2022-10-22T10:10:53.970Z,477.1
2022-10-22T10:11:55.893Z,477.3
2022-10-22T10:12:57.554Z,477.7
2022-10-22T10:13:59.301Z,477.9
2022-10-22T10:15:00.971Z,477.9
2022-10-22T10:16:02.692Z,477.9
2022-10-22T10:17:04.528Z,477.7
2022-10-22T10:18:06.066Z,477.5
2022-10-22T10:19:07.613Z,477.6
2022-10-22T10:20:09.481Z,477.1
2022-10-22T10:21:11.483Z,477.1
2022-10-22T10:22:13.187Z,477
2022-10-22T10:23:14.930Z,476.9
2022-10-22T10:24:16.790Z,476.9
2022-10-22T10:25:18.509Z,477
2022-10-22T10:26:20.023Z,477.5
2022-10-22T10:27:21.697Z,478.1
2022-10-22T10:28:23.309Z,478.3
2022-10-22T10:29:25.342Z,478.6
2022-10-22T10:30:26.927Z,478.3
2022-10-22T10:31:28.564Z,478.6
2022-10-22T10:32:30.332Z,478.6
2022-10-22T10:33:31.997Z,478.7
2022-10-22T10:34:33.665Z,479.2
2022-10-22T10:35:35.372Z,479.4
2022-10-22T10:36:37.170Z,479.3
2022-10-22T10:37:38.724Z,479.7
2022-10-22T10:38:40.320Z,479.9
2022-10-22T10:39:42.076Z,480.1
2022-10-22T10:40:43.920Z,479.9
2022-10-22T10:41:45.586Z,479.9
2022-10-22T10:42:47.549Z,480.2
2022-10-22T10:43:49.187Z,480.3
2022-10-22T10:44:50.792Z,480.4
2022-10-22T10:45:56.339Z,480.9
2022-10-22T10:46:57.970Z,480.9
2022-10-22T10:47:59.557Z,481.4
2022-10-22T10:49:01.261Z,481.6
2022-10-22T10:50:02.905Z,481.9
2022-10-22T10:51:04.558Z,481.7
2022-10-22T10:52:06.117Z,482
2022-10-22T10:53:07.661Z,482.1
2022-10-22T10:54:09.487Z,482.6
2022-10-22T10:55:11.258Z,482.7
2022-10-22T10:56:13.019Z,482.3
2022-10-22T10:57:14.745Z,483
2022-10-22T10:58:16.497Z,482.5
2022-10-22T10:59:18.126Z,483.2
2022-10-22T11:00:19.683Z,483.2
2022-10-22T11:01:21.749Z,483.7
2022-10-22T11:02:23.347Z,483.9
2022-10-22T11:03:25.219Z,484.3
2022-10-22T11:04:26.972Z,484.2
2022-10-22T11:05:28.592Z,484.2
2022-10-22T11:06:30.327Z,484.3
2022-10-22T11:07:35.796Z,484.5
2022-10-22T11:08:37.748Z,484.9
2022-10-22T11:09:39.640Z,484.8
2022-10-22T11:10:41.365Z,485
2022-10-22T11:11:42.978Z,485.4
2022-10-22T11:12:45.367Z,485.5
2022-10-22T11:13:48.095Z,486
2022-10-22T11:14:49.648Z,486
2022-10-22T11:15:51.193Z,486.2
2022-10-22T11:16:52.895Z,486.2
2022-10-22T11:17:54.423Z,486.5
2022-10-22T11:18:56.029Z,486.4
2022-10-22T11:20:01.140Z,486.6
2022-10-22T11:21:02.895Z,486.8
2022-10-22T11:22:04.582Z,486.6
2022-10-22T11:23:23.494Z,487.1
2022-10-22T11:24:25.382Z,487
2022-10-22T11:25:27.021Z,487.3
2022-10-22T11:26:28.776Z,487.9
2022-10-22T11:27:30.535Z,487.9
2022-10-22T11:28:32.146Z,488.2
2022-10-22T11:29:33.810Z,488.5
2022-10-22T11:30:35.466Z,488.4
2022-10-22T11:31:37.116Z,488.7
2022-10-22T11:32:40.216Z,488.9
2022-10-22T11:33:42.098Z,488.8
2022-10-22T11:34:43.732Z,488.8
2022-10-22T11:35:45.297Z,489.5
2022-10-22T11:36:47.045Z,489.4
2022-10-22T11:37:48.793Z,489.7
2022-10-22T11:38:50.336Z,490.1
2022-10-22T11:39:51.880Z,489.9
2022-10-22T11:40:53.544Z,490
2022-10-22T11:41:55.402Z,490.2
2022-10-22T11:42:57.057Z,490.3
2022-10-22T11:43:58.786Z,490.3
2022-10-22T11:45:00.449Z,490.3
2022-10-22T11:46:02.074Z,490.4
2022-10-22T11:47:03.611Z,490.1
2022-10-22T11:48:08.201Z,490.4
2022-10-22T11:49:09.862Z,490.5
2022-10-22T11:50:11.645Z,490.5
2022-10-22T11:51:13.298Z,490.6
2022-10-22T11:52:15.015Z,490.7
2022-10-22T11:53:16.628Z,491.1
2022-10-22T11:54:18.342Z,491.4
2022-10-22T11:55:19.917Z,491.1
2022-10-22T11:56:21.500Z,490.9
2022-10-22T11:57:23.152Z,491.3
2022-10-22T11:58:24.751Z,491.4
2022-10-22T11:59:26.426Z,491
2022-10-22T12:00:27.987Z,491.1
2022-10-22T12:01:30.080Z,491
2022-10-22T12:02:31.742Z,490.9
2022-10-22T12:03:33.322Z,491.2
2022-10-22T12:04:35.496Z,491.3
2022-10-22T12:05:37.191Z,491.5
2022-10-22T12:06:38.786Z,491.5
2022-10-22T12:07:40.464Z,492
2022-10-22T12:08:42.364Z,491.9
2022-10-22T12:09:44.428Z,492.1
2022-10-22T12:10:46.189Z,492.1
2022-10-22T12:11:48.008Z,492.2
2022-10-22T12:12:49.767Z,492.6
2022-10-22T12:13:51.371Z,492.3
2022-10-22T12:14:53.033Z,492.4
2022-10-22T12:15:54.767Z,492.4
2022-10-22T12:16:58.483Z,492.4
2022-10-22T12:18:00.432Z,493.2
2022-10-22T12:19:02.259Z,493.2
2022-10-22T12:20:03.925Z,493.3
2022-10-22T12:21:05.461Z,493.4
2022-10-22T12:22:07.149Z,493.5
2022-10-22T12:23:08.726Z,493.9
2022-10-22T12:24:10.333Z,493.9
2022-10-22T12:25:11.860Z,494.4
2022-10-22T12:26:13.414Z,494.4
2022-10-22T12:27:21.416Z,494.3
2022-10-22T12:28:24.172Z,494.2
2022-10-22T12:29:25.993Z,494.5
2022-10-22T12:30:27.526Z,494.3
2022-10-22T12:31:29.074Z,493.9
2022-10-22T12:32:30.835Z,493.8
2022-10-22T12:33:32.378Z,493.8
2022-10-22T12:34:34.024Z,493.8
2022-10-22T12:35:35.566Z,493.7
2022-10-22T12:36:37.110Z,493.6
2022-10-22T12:37:40.105Z,493.7
2022-10-22T12:38:41.915Z,493.6
2022-10-22T12:39:43.426Z,493.9
2022-10-22T12:40:49.540Z,494
2022-10-22T12:41:51.054Z,494.1
2022-10-22T12:42:52.738Z,494
2022-10-22T12:43:54.487Z,494.1
2022-10-22T12:44:56.134Z,494.2
2022-10-22T12:45:57.672Z,494.5
2022-10-22T12:46:59.417Z,494.4
2022-10-22T12:48:01.272Z,494.6
2022-10-22T12:49:03.200Z,494.8
2022-10-22T12:50:04.738Z,494.7
2022-10-22T12:51:06.286Z,494.5
2022-10-22T12:52:14.353Z,494.6
2022-10-22T12:53:15.903Z,494.7
2022-10-22T12:54:17.609Z,494.9
2022-10-22T12:55:19.156Z,494.8
2022-10-22T12:56:20.759Z,494.9
2022-10-22T12:57:22.446Z,495.3
2022-10-22T12:58:24.069Z,495.1
2022-10-22T12:59:25.923Z,495.4
2022-10-22T13:00:27.958Z,495.8
2022-10-22T13:01:29.573Z,495.8
2022-10-22T13:02:31.136Z,496.1
2022-10-22T13:03:32.802Z,496.3
2022-10-22T13:04:34.470Z,496.4
2022-10-22T13:05:36.209Z,496.5
2022-10-22T13:06:37.745Z,496.2
2022-10-22T13:07:39.282Z,496.3
2022-10-22T13:08:41.388Z,496.5
2022-10-22T13:09:43.162Z,496.6
2022-10-22T13:10:44.854Z,496.5
2022-10-22T13:11:46.673Z,496.7
2022-10-22T13:12:48.257Z,496.7
2022-10-22T13:13:49.866Z,497.2
2022-10-22T13:14:51.626Z,497.1
2022-10-22T13:15:53.478Z,496.9
2022-10-22T13:16:55.269Z,497.2
2022-10-22T13:17:56.976Z,496.9
2022-10-22T13:18:58.553Z,497.1
2022-10-22T13:20:00.092Z,496.9
2022-10-22T13:21:01.819Z,497
2022-10-22T13:22:03.455Z,496.9
2022-10-22T13:23:04.966Z,496.8